Kennedy, Alabama
Current Conditions -  °F | °C
As of 3:58 PM on Saturday 20 Dec 2014 (Local Time) from KCBM Reporting Station
Clear Clear  
Wind Chill: 55°   Ceiling: Unl
Heat Index: 55°   Visibility: 10mi
Dew Point: 35°   Wind: 7mph
Humidity: 48%   Direction: 20°NNE
Pressure: 30.18"   Gusts: NA
Location:  33.59°N, 87.98°W
Report Text: KCBM 202158Z AUTO 02006KT 10SM CLR 13/02 A3018 RMK AO2 SLP223 T01260017 $
Loading
Personal Weather Stations






























Interactive Weather Map New forecast layout! Learn more

10-Day Weather Forecast

Advertisements
Track Severe Weather on mobile